createdAt,value
2017-11-24T00:02:06.248Z,11.00
2017-11-24T00:04:34.537Z,11.00
2017-11-24T00:07:02.868Z,11.00
2017-11-24T00:09:31.915Z,11.00
2017-11-24T00:12:00.252Z,11.00
2017-11-24T00:14:29.300Z,11.00
2017-11-24T00:16:57.587Z,11.00
2017-11-24T00:19:25.925Z,11.00
2017-11-24T00:21:55.793Z,11.00
2017-11-24T00:24:24.128Z,11.00
2017-11-24T00:26:52.416Z,10.90
2017-11-24T00:29:20.807Z,10.90
2017-11-24T00:31:49.115Z,11.00
2017-11-24T00:34:17.399Z,11.10
2017-11-24T00:36:46.699Z,11.20
2017-11-24T00:39:14.984Z,11.10
2017-11-24T00:41:43.268Z,11.10
2017-11-24T00:44:11.580Z,11.10
2017-11-24T00:46:40.672Z,11.20
2017-11-24T00:49:08.955Z,11.10
2017-11-24T00:51:37.279Z,11.10
2017-11-24T00:54:06.328Z,11.10
2017-11-24T00:56:34.664Z,11.10
2017-11-24T00:59:02.953Z,11.20
2017-11-24T01:01:32.045Z,11.10
2017-11-24T01:04:00.413Z,11.10
2017-11-24T01:06:28.733Z,11.00
2017-11-24T01:08:57.031Z,10.90
2017-11-24T01:11:25.514Z,10.90
2017-11-24T01:13:53.800Z,11.00
2017-11-24T01:16:22.162Z,10.90
2017-11-24T01:18:50.452Z,10.80
2017-11-24T01:21:18.741Z,10.70
2017-11-24T01:23:47.113Z,10.70
2017-11-24T01:26:15.547Z,10.70
2017-11-24T01:28:43.824Z,10.60
2017-11-24T01:31:12.170Z,10.50
2017-11-24T01:33:40.629Z,10.50
2017-11-24T01:36:08.912Z,10.50
2017-11-24T01:38:37.194Z,10.50
2017-11-24T01:41:05.504Z,10.50
2017-11-24T01:43:34.580Z,10.60
2017-11-24T01:46:02.868Z,10.60
2017-11-24T01:48:31.180Z,10.60
2017-11-24T01:50:59.468Z,10.60
2017-11-24T01:53:27.777Z,10.60
2017-11-24T01:55:56.828Z,10.60
2017-11-24T01:58:25.152Z,10.60
2017-11-24T02:00:53.441Z,10.60
2017-11-24T02:03:21.747Z,10.60
2017-11-24T02:05:50.800Z,10.50
2017-11-24T02:08:19.115Z,10.50
2017-11-24T02:10:47.399Z,10.50
2017-11-24T02:13:15.703Z,10.50
2017-11-24T02:15:43.988Z,10.60
2017-11-24T02:18:12.374Z,10.60
2017-11-24T02:20:40.688Z,10.60
2017-11-24T02:23:09.784Z,10.70
2017-11-24T02:25:38.072Z,10.60
2017-11-24T02:28:06.404Z,10.70
2017-11-24T02:30:34.693Z,10.70
2017-11-24T02:33:02.995Z,10.70
2017-11-24T02:35:31.275Z,10.80
2017-11-24T02:37:59.596Z,10.80
2017-11-24T02:40:27.891Z,10.80
2017-11-24T02:42:56.195Z,10.80
2017-11-24T02:45:24.583Z,10.80
2017-11-24T02:47:52.975Z,10.80
2017-11-24T02:50:21.256Z,10.80
2017-11-24T02:52:49.564Z,10.80
2017-11-24T02:55:17.843Z,10.80
2017-11-24T02:57:46.175Z,10.80
2017-11-24T03:00:15.324Z,10.80
2017-11-24T03:02:43.624Z,10.90
2017-11-24T03:05:11.909Z,10.90
2017-11-24T03:07:40.211Z,10.90
2017-11-24T03:10:08.496Z,10.90
2017-11-24T03:12:38.344Z,10.90
2017-11-24T03:15:07.391Z,10.90
2017-11-24T03:17:35.725Z,10.90
2017-11-24T03:20:04.052Z,11.00
2017-11-24T03:22:32.336Z,11.00
2017-11-24T03:25:00.648Z,10.90
2017-11-24T03:27:28.930Z,10.90
2017-11-24T03:29:57.265Z,10.90
2017-11-24T03:32:25.556Z,10.90
2017-11-24T03:34:53.845Z,10.90
2017-11-24T03:37:22.260Z,10.90
2017-11-24T03:39:51.364Z,10.90
2017-11-24T03:42:19.641Z,10.80
2017-11-24T03:44:47.979Z,10.80
2017-11-24T03:47:16.260Z,10.80
2017-11-24T03:49:44.723Z,10.90
2017-11-24T03:52:13.003Z,10.80
2017-11-24T03:54:41.384Z,10.80
2017-11-24T03:57:09.691Z,10.80
2017-11-24T03:59:38.744Z,10.70
2017-11-24T04:02:07.149Z,10.70
2017-11-24T04:04:35.436Z,10.70
2017-11-24T04:07:03.765Z,10.70
2017-11-24T04:09:32.860Z,10.70
2017-11-24T04:12:01.212Z,10.70
2017-11-24T04:14:29.532Z,10.80
2017-11-24T04:16:57.823Z,10.80
2017-11-24T04:19:26.168Z,10.80
2017-11-24T04:21:54.451Z,10.80
2017-11-24T04:24:22.804Z,10.80
2017-11-24T04:26:51.116Z,10.70
2017-11-24T04:29:20.167Z,10.70
2017-11-24T04:31:48.473Z,10.70
2017-11-24T04:34:16.764Z,10.70
2017-11-24T04:36:45.070Z,10.70
2017-11-24T04:39:13.356Z,10.70
2017-11-24T04:41:41.659Z,10.60
2017-11-24T04:44:10.713Z,10.60
2017-11-24T04:46:39.057Z,10.60
2017-11-24T04:49:08.113Z,10.70
2017-11-24T04:51:36.528Z,10.70
2017-11-24T04:54:04.817Z,10.60
2017-11-24T04:56:33.221Z,10.60
2017-11-24T04:59:01.501Z,10.60
2017-11-24T05:01:29.812Z,10.60
2017-11-24T05:03:58.867Z,10.50
2017-11-24T05:06:27.191Z,10.50
2017-11-24T05:08:55.500Z,10.40
2017-11-24T05:11:24.579Z,10.40
2017-11-24T05:13:52.864Z,10.40
2017-11-24T05:16:21.205Z,10.40
2017-11-24T05:18:49.540Z,10.40
2017-11-24T05:21:17.827Z,10.40
2017-11-24T05:23:46.111Z,10.30
2017-11-24T05:26:14.516Z,10.20
2017-11-24T05:28:42.855Z,10.20
2017-11-24T05:31:11.148Z,10.20
2017-11-24T05:33:39.448Z,10.20
2017-11-24T05:36:07.780Z,10.20
2017-11-24T05:38:36.057Z,10.20
2017-11-24T05:41:04.335Z,10.10
2017-11-24T05:43:32.667Z,10.20
2017-11-24T05:46:00.991Z,10.20
2017-11-24T05:48:29.305Z,10.20
2017-11-24T05:50:57.611Z,10.10
2017-11-24T05:53:27.412Z,10.00
2017-11-24T05:55:56.077Z,10.00
2017-11-24T05:58:24.431Z,10.00
2017-11-24T06:00:52.714Z,10.00
2017-11-24T06:03:21.056Z,10.00
2017-11-24T06:05:49.392Z,10.00
2017-11-24T06:08:17.716Z,9.90
2017-11-24T06:10:46.793Z,9.90
2017-11-24T06:13:15.188Z,9.90
2017-11-24T06:15:43.468Z,9.90
2017-11-24T06:18:11.748Z,10.00
2017-11-24T06:20:40.088Z,9.90
2017-11-24T06:23:09.573Z,9.80
2017-11-24T06:25:37.856Z,9.80
2017-11-24T06:28:06.155Z,9.70
2017-11-24T06:30:34.479Z,9.80
2017-11-24T06:33:02.765Z,9.70
2017-11-24T06:35:31.865Z,9.70
2017-11-24T06:38:01.040Z,9.70
2017-11-24T06:40:29.339Z,9.70
2017-11-24T06:42:57.666Z,9.80
2017-11-24T06:45:26.016Z,9.70
2017-11-24T06:47:54.295Z,9.70
2017-11-24T06:50:22.622Z,9.70
2017-11-24T06:52:51.667Z,9.80
2017-11-24T06:55:19.988Z,9.70
2017-11-24T06:57:48.292Z,9.80
2017-11-24T07:00:16.576Z,9.80
2017-11-24T07:02:44.889Z,9.80
2017-11-24T07:05:13.941Z,9.70
2017-11-24T07:07:42.347Z,9.70
2017-11-24T07:10:10.675Z,9.70
2017-11-24T07:12:39.713Z,9.80
2017-11-24T07:15:07.987Z,9.80
2017-11-24T07:17:36.345Z,9.70
2017-11-24T07:20:05.396Z,9.90
2017-11-24T07:22:33.724Z,9.90
2017-11-24T07:25:02.035Z,9.90
2017-11-24T07:27:31.089Z,10.10
2017-11-24T07:30:00.636Z,10.10
2017-11-24T07:32:29.127Z,10.20
2017-11-24T07:34:57.416Z,10.20
2017-11-24T07:37:25.703Z,10.20
2017-11-24T07:39:54.506Z,10.30
2017-11-24T07:42:22.791Z,10.40
2017-11-24T07:44:51.084Z,10.40
2017-11-24T07:47:19.420Z,10.50
2017-11-24T07:49:48.467Z,10.60
2017-11-24T07:52:16.975Z,10.60
2017-11-24T07:54:45.260Z,10.60
2017-11-24T07:57:13.544Z,10.70
2017-11-24T07:59:41.852Z,10.70
2017-11-24T08:02:10.136Z,10.70
2017-11-24T08:04:38.467Z,10.80
2017-11-24T08:07:07.512Z,11.00
2017-11-24T08:09:35.860Z,11.00
2017-11-24T08:12:04.148Z,11.00
2017-11-24T08:14:33.201Z,11.20
2017-11-24T08:17:01.523Z,11.20
2017-11-24T08:19:29.808Z,11.20
2017-11-24T08:21:58.088Z,11.20
2017-11-24T08:24:26.402Z,11.30
2017-11-24T08:26:55.451Z,11.30
2017-11-24T08:29:23.759Z,11.30
2017-11-24T08:31:52.056Z,11.30
2017-11-24T08:34:20.391Z,11.40
2017-11-24T08:36:48.676Z,11.40
2017-11-24T08:39:17.791Z,11.50
2017-11-24T08:41:46.135Z,11.40
2017-11-24T08:44:14.423Z,11.60
2017-11-24T08:46:48.448Z,11.70
2017-11-24T08:49:22.398Z,11.70
2017-11-24T08:51:51.449Z,11.80
2017-11-24T08:54:19.787Z,11.80
2017-11-24T08:56:49.626Z,11.60
2017-11-24T08:59:18.676Z,11.70
2017-11-24T09:01:46.971Z,11.70
2017-11-24T09:04:15.305Z,11.80
2017-11-24T09:06:44.360Z,11.70
2017-11-24T09:09:12.693Z,11.70
2017-11-24T09:11:40.976Z,11.70
2017-11-24T09:14:09.264Z,11.70
2017-11-24T09:16:37.605Z,11.70
2017-11-24T09:19:05.892Z,11.80
2017-11-24T09:21:34.240Z,11.70
2017-11-24T09:24:03.296Z,11.80
2017-11-24T09:26:31.584Z,11.80
2017-11-24T09:29:00.008Z,11.90
2017-11-24T09:31:28.293Z,11.80
2017-11-24T09:33:56.613Z,11.70
2017-11-24T09:36:24.904Z,11.90
2017-11-24T09:38:53.999Z,11.90
2017-11-24T09:41:22.284Z,11.90
2017-11-24T09:43:52.071Z,12.00
2017-11-24T09:46:20.405Z,12.00
2017-11-24T09:48:48.732Z,12.10
2017-11-24T09:51:17.067Z,12.10
2017-11-24T09:53:45.372Z,12.10
2017-11-24T09:56:13.652Z,12.10
2017-11-24T09:58:41.952Z,12.20
2017-11-24T10:01:10.233Z,12.30
2017-11-24T10:03:38.536Z,12.30
2017-11-24T10:06:07.583Z,12.50
2017-11-24T10:08:35.910Z,12.50
2017-11-24T10:11:04.261Z,12.60
2017-11-24T10:13:32.583Z,12.70
2017-11-24T10:16:00.868Z,12.80
2017-11-24T10:18:30.392Z,12.90
2017-11-24T10:21:04.500Z,13.00
2017-11-24T10:23:32.907Z,13.20
2017-11-24T10:26:01.249Z,13.30
2017-11-24T10:28:29.576Z,13.40
2017-11-24T10:30:57.964Z,13.50
2017-11-24T10:33:26.253Z,13.50
2017-11-24T10:35:54.561Z,13.70
2017-11-24T10:38:22.868Z,13.80
2017-11-24T10:40:52.663Z,13.70
2017-11-24T10:43:20.987Z,13.70
2017-11-24T10:45:49.273Z,13.80
2017-11-24T10:48:17.600Z,13.90
2017-11-24T10:50:45.884Z,13.90
2017-11-24T10:53:14.209Z,13.90
2017-11-24T10:55:42.616Z,13.90
2017-11-24T10:58:10.895Z,14.00
2017-11-24T11:00:40.116Z,14.00
2017-11-24T11:03:08.396Z,14.00
2017-11-24T11:05:36.683Z,14.10
2017-11-24T11:08:04.984Z,14.20
2017-11-24T11:10:33.263Z,14.20
2017-11-24T11:13:01.730Z,14.20
2017-11-24T11:15:30.048Z,14.20
2017-11-24T11:17:58.327Z,14.30
2017-11-24T11:20:26.658Z,14.20
2017-11-24T11:22:54.985Z,14.30
2017-11-24T11:25:23.320Z,14.40
2017-11-24T11:27:51.705Z,14.40
2017-11-24T11:30:21.238Z,14.50
2017-11-24T11:32:49.530Z,14.60
2017-11-24T11:35:17.855Z,14.60
2017-11-24T11:37:46.131Z,14.60
2017-11-24T11:40:14.416Z,14.50
2017-11-24T11:42:43.493Z,14.40
2017-11-24T11:45:11.875Z,14.40
2017-11-24T11:47:40.265Z,14.50
2017-11-24T11:50:08.551Z,14.60
2017-11-24T11:52:36.940Z,14.50
2017-11-24T11:55:05.237Z,14.50
2017-11-24T11:57:33.569Z,14.60
2017-11-24T12:00:01.857Z,14.60
2017-11-24T12:02:30.144Z,14.70
2017-11-24T12:04:59.237Z,14.80
2017-11-24T12:07:28.336Z,14.80
2017-11-24T12:09:56.622Z,14.80
2017-11-24T12:12:25.409Z,14.90
2017-11-24T12:14:53.684Z,15.00
2017-11-24T12:17:21.964Z,15.10
2017-11-24T12:19:50.371Z,15.10
2017-11-24T12:22:18.647Z,15.10
2017-11-24T12:24:46.975Z,15.00
2017-11-24T12:27:16.031Z,15.00
2017-11-24T12:29:44.304Z,15.00
2017-11-24T12:32:12.643Z,14.90
2017-11-24T12:34:40.917Z,14.80
2017-11-24T12:37:09.248Z,14.80
2017-11-24T12:39:38.300Z,14.80
2017-11-24T12:42:06.628Z,14.70
2017-11-24T12:44:35.706Z,14.70
2017-11-24T12:47:04.011Z,14.70
2017-11-24T12:49:32.296Z,14.60
2017-11-24T12:52:00.605Z,14.50
2017-11-24T12:54:28.884Z,14.60
2017-11-24T12:56:57.380Z,14.60
2017-11-24T12:59:25.656Z,14.60
2017-11-24T13:01:53.941Z,14.70
2017-11-24T13:04:22.268Z,14.70
2017-11-24T13:06:51.316Z,14.60
2017-11-24T13:09:19.600Z,14.60
2017-11-24T13:11:47.932Z,14.60
2017-11-24T13:14:16.316Z,14.70
2017-11-24T13:16:44.622Z,14.50
2017-11-24T13:19:12.910Z,14.50
2017-11-24T13:21:41.279Z,14.50
2017-11-24T13:24:09.561Z,14.50
2017-11-24T13:26:37.960Z,14.40
2017-11-24T13:29:06.239Z,14.50
2017-11-24T13:31:34.640Z,14.50
2017-11-24T13:34:02.923Z,14.40
2017-11-24T13:36:31.360Z,14.40
2017-11-24T13:39:00.412Z,14.30
2017-11-24T13:41:28.724Z,14.30
2017-11-24T13:43:57.032Z,14.30
2017-11-24T13:46:25.377Z,14.20
2017-11-24T13:48:53.651Z,14.30
2017-11-24T13:51:21.988Z,14.30
2017-11-24T13:53:50.263Z,14.20
2017-11-24T13:56:18.597Z,14.20
2017-11-24T13:58:47.648Z,14.10
2017-11-24T14:01:15.952Z,14.10
2017-11-24T14:03:44.300Z,14.20
2017-11-24T14:06:12.581Z,14.20
2017-11-24T14:08:40.920Z,14.20
2017-11-24T14:11:09.208Z,14.10
2017-11-24T14:13:37.484Z,14.10
2017-11-24T14:16:05.792Z,14.20
2017-11-24T14:18:34.075Z,14.20
2017-11-24T14:21:02.868Z,14.10
2017-11-24T14:23:31.148Z,13.90
2017-11-24T14:25:59.484Z,13.80
2017-11-24T14:28:29.170Z,13.40
2017-11-24T14:30:59.139Z,13.40
2017-11-24T14:33:30.364Z,13.10
2017-11-24T14:35:59.977Z,13.00
2017-11-24T14:38:28.884Z,13.00
2017-11-24T14:40:57.197Z,13.00
2017-11-24T14:43:27.999Z,12.80
2017-11-24T14:45:56.329Z,12.80
2017-11-24T14:48:28.197Z,12.90
2017-11-24T14:50:56.579Z,12.90
2017-11-24T14:53:24.892Z,12.80
2017-11-24T14:55:53.558Z,12.70
2017-11-24T14:58:22.376Z,12.50
2017-11-24T15:00:51.264Z,12.50
2017-11-24T15:03:21.703Z,12.20
2017-11-24T15:05:50.085Z,12.20
2017-11-24T15:08:18.793Z,12.10
2017-11-24T15:10:48.208Z,11.90
2017-11-24T15:13:16.492Z,11.80
2017-11-24T15:15:44.780Z,11.70
2017-11-24T15:18:13.107Z,11.70
2017-11-24T15:20:42.160Z,11.40
2017-11-24T15:23:10.461Z,11.40
2017-11-24T15:25:40.005Z,11.30
2017-11-24T15:28:08.349Z,11.30
2017-11-24T15:30:36.627Z,11.40
2017-11-24T15:33:04.911Z,11.30
2017-11-24T15:35:33.225Z,11.30
2017-11-24T15:38:01.507Z,11.30
2017-11-24T15:40:29.816Z,11.20
2017-11-24T15:42:58.422Z,11.20
2017-11-24T15:45:27.568Z,11.10
2017-11-24T15:47:56.624Z,11.00
2017-11-24T15:50:25.496Z,11.00
2017-11-24T15:52:53.817Z,11.00
2017-11-24T15:55:22.132Z,11.00
2017-11-24T15:57:50.424Z,11.00
2017-11-24T16:00:18.728Z,10.90
2017-11-24T16:02:47.020Z,10.80
2017-11-24T16:05:16.118Z,10.70
2017-11-24T16:07:44.406Z,10.70
2017-11-24T16:10:12.744Z,10.60
2017-11-24T16:12:41.039Z,10.60
2017-11-24T16:15:09.360Z,10.50
2017-11-24T16:17:37.651Z,10.40
2017-11-24T16:20:06.021Z,10.50
2017-11-24T16:22:34.340Z,10.50
2017-11-24T16:25:02.723Z,10.50
2017-11-24T16:27:31.021Z,10.30
2017-11-24T16:29:59.324Z,10.20
2017-11-24T16:32:28.380Z,10.30
2017-11-24T16:34:56.795Z,10.30
2017-11-24T16:37:25.408Z,10.30
2017-11-24T16:39:53.691Z,10.20
2017-11-24T16:42:22.072Z,10.10
2017-11-24T16:44:51.701Z,9.90
2017-11-24T16:47:19.991Z,9.90
2017-11-24T16:49:48.263Z,9.90
2017-11-24T16:52:16.567Z,9.80
2017-11-24T16:54:46.180Z,9.70
2017-11-24T16:57:14.468Z,9.70
2017-11-24T16:59:42.780Z,9.70
2017-11-24T17:02:11.137Z,9.80
2017-11-24T17:04:39.434Z,9.70
2017-11-24T17:07:07.704Z,9.70
2017-11-24T17:09:36.034Z,9.70
2017-11-24T17:12:05.248Z,9.60
2017-11-24T17:14:34.295Z,9.40
2017-11-24T17:17:02.623Z,9.40
2017-11-24T17:19:30.933Z,9.40
2017-11-24T17:21:59.977Z,9.50
2017-11-24T17:24:28.289Z,9.50
2017-11-24T17:26:56.572Z,9.50
2017-11-24T17:29:24.904Z,9.50
2017-11-24T17:31:53.966Z,9.40
2017-11-24T17:34:22.253Z,9.40
2017-11-24T17:36:50.580Z,9.30
2017-11-24T17:39:18.856Z,9.20
2017-11-24T17:41:47.189Z,9.20
2017-11-24T17:44:16.296Z,9.00
2017-11-24T17:46:45.350Z,9.00
2017-11-24T17:49:13.623Z,8.90
2017-11-24T17:51:41.923Z,8.80
2017-11-24T17:54:10.204Z,8.80
2017-11-24T17:56:38.527Z,8.70
2017-11-24T17:59:06.817Z,8.70
2017-11-24T18:01:35.124Z,8.70
2017-11-24T18:04:04.169Z,8.60
2017-11-24T18:06:32.488Z,8.60
2017-11-24T18:09:00.812Z,8.60
2017-11-24T18:11:29.852Z,8.60
2017-11-24T18:13:58.151Z,8.50
2017-11-24T18:16:26.468Z,8.50
2017-11-24T18:18:54.757Z,8.50
2017-11-24T18:21:24.381Z,8.50
2017-11-24T18:23:52.656Z,8.50
2017-11-24T18:26:20.935Z,8.50
2017-11-24T18:28:49.240Z,8.50
2017-11-24T18:31:17.545Z,8.50
2017-11-24T18:33:45.828Z,8.50
2017-11-24T18:36:14.137Z,8.60
2017-11-24T18:38:43.181Z,8.50
2017-11-24T18:41:11.475Z,8.50
2017-11-24T18:43:39.766Z,8.50
2017-11-24T18:46:08.500Z,8.40
2017-11-24T18:48:36.792Z,8.50
2017-11-24T18:51:05.064Z,8.50
2017-11-24T18:53:33.397Z,8.40
2017-11-24T18:56:02.449Z,8.50
2017-11-24T18:58:30.772Z,8.40
2017-11-24T19:00:59.075Z,8.50
2017-11-24T19:03:28.128Z,8.20
2017-11-24T19:05:56.459Z,8.20
2017-11-24T19:08:24.845Z,8.20
2017-11-24T19:10:53.149Z,8.20
2017-11-24T19:13:21.439Z,8.20
2017-11-24T19:15:50.508Z,8.20
2017-11-24T19:18:18.811Z,8.10
2017-11-24T19:20:47.313Z,8.10
2017-11-24T19:23:15.600Z,7.90
2017-11-24T19:25:45.387Z,7.80
2017-11-24T19:28:13.716Z,7.80
2017-11-24T19:30:42.004Z,7.80
2017-11-24T19:33:10.287Z,7.70
2017-11-24T19:35:38.621Z,7.60
2017-11-24T19:38:06.903Z,7.60
2017-11-24T19:40:37.305Z,7.60
2017-11-24T19:43:05.636Z,7.60
2017-11-24T19:45:33.985Z,7.60
2017-11-24T19:48:02.283Z,7.50
2017-11-24T19:50:30.558Z,7.50
2017-11-24T19:52:58.889Z,7.50
2017-11-24T19:55:27.979Z,7.50
2017-11-24T19:57:57.073Z,7.50
2017-11-24T20:00:25.572Z,7.50
2017-11-24T20:02:53.867Z,7.50
2017-11-24T20:05:22.975Z,7.60
2017-11-24T20:07:51.299Z,7.60
2017-11-24T20:10:19.577Z,7.50
2017-11-24T20:12:48.668Z,7.30
2017-11-24T20:15:17.729Z,7.40
2017-11-24T20:17:46.137Z,7.30
2017-11-24T20:20:15.220Z,7.40
2017-11-24T20:22:43.542Z,7.30
2017-11-24T20:25:11.847Z,7.40
2017-11-24T20:27:40.176Z,7.40
2017-11-24T20:30:08.467Z,7.40
2017-11-24T20:32:36.784Z,7.50
2017-11-24T20:35:05.063Z,7.40
2017-11-24T20:40:06.859Z,7.20
2017-11-24T20:42:35.169Z,7.20
2017-11-24T20:45:03.447Z,7.10
2017-11-24T20:47:31.790Z,7.10
2017-11-24T20:50:00.836Z,6.90
2017-11-24T20:52:30.092Z,6.90
2017-11-24T20:54:58.420Z,6.80
2017-11-24T20:57:26.781Z,6.70
2017-11-24T20:59:55.873Z,6.70
2017-11-24T21:02:24.163Z,6.60
2017-11-24T21:04:52.540Z,6.60
2017-11-24T21:07:20.861Z,6.60
2017-11-24T21:09:49.903Z,6.50
2017-11-24T21:12:18.236Z,6.40
2017-11-24T21:14:46.508Z,6.40
2017-11-24T21:17:14.828Z,6.30
2017-11-24T21:19:43.999Z,6.40
2017-11-24T21:22:12.271Z,6.40
2017-11-24T21:24:40.560Z,6.40
2017-11-24T21:27:09.180Z,6.30
2017-11-24T21:29:37.455Z,6.30
2017-11-24T21:32:05.862Z,6.20
2017-11-24T21:34:34.186Z,6.10
2017-11-24T21:37:03.260Z,6.20
2017-11-24T21:39:31.561Z,6.10
2017-11-24T21:41:59.859Z,6.20
2017-11-24T21:44:28.914Z,6.30
2017-11-24T21:46:57.344Z,6.30
2017-11-24T21:49:25.620Z,6.50
2017-11-24T21:51:53.931Z,6.50
2017-11-24T21:54:22.219Z,6.40
2017-11-24T21:56:50.552Z,6.50
2017-11-24T21:59:18.834Z,6.50
2017-11-24T22:01:47.180Z,6.60
2017-11-24T22:04:15.469Z,6.50
2017-11-24T22:06:43.968Z,6.50
2017-11-24T22:09:12.258Z,6.60
2017-11-24T22:11:40.634Z,6.70
2017-11-24T22:14:08.959Z,6.80
2017-11-24T22:16:38.149Z,6.90
2017-11-24T22:19:06.484Z,6.90
2017-11-24T22:21:34.828Z,6.80
2017-11-24T22:24:03.136Z,6.80
2017-11-24T22:29:06.795Z,6.90
2017-11-24T22:31:35.357Z,7.00
2017-11-24T22:34:03.736Z,7.00
2017-11-24T22:36:32.021Z,7.10
2017-11-24T22:39:00.334Z,7.00
2017-11-24T22:41:28.639Z,7.00
2017-11-24T22:43:57.690Z,7.10
2017-11-24T22:46:26.017Z,7.10
2017-11-24T22:48:55.833Z,7.10
2017-11-24T22:51:24.139Z,7.10
2017-11-24T22:53:53.192Z,7.20
2017-11-24T22:56:21.528Z,7.20
2017-11-24T22:58:49.816Z,7.10
2017-11-24T23:01:18.155Z,7.10
2017-11-24T23:03:46.443Z,7.00
2017-11-24T23:06:14.756Z,7.00
2017-11-24T23:08:43.071Z,7.10
2017-11-24T23:11:11.462Z,7.10
2017-11-24T23:13:39.759Z,7.20
2017-11-24T23:16:08.877Z,7.10
2017-11-24T23:18:37.988Z,7.20
2017-11-24T23:21:07.280Z,7.30
2017-11-24T23:23:35.573Z,7.20
2017-11-24T23:26:03.866Z,7.20
2017-11-24T23:28:32.441Z,7.20
2017-11-24T23:31:00.728Z,7.20
2017-11-24T23:33:29.017Z,7.30
2017-11-24T23:35:57.352Z,7.30
2017-11-24T23:38:26.472Z,7.10
2017-11-24T23:40:54.760Z,7.10
2017-11-24T23:43:23.052Z,7.20
2017-11-24T23:45:51.387Z,7.10
2017-11-24T23:48:19.674Z,7.20
2017-11-24T23:50:48.081Z,7.20
2017-11-24T23:53:16.370Z,7.20
2017-11-24T23:55:44.684Z,7.30
2017-11-24T23:58:13.747Z,7.30
